Caro, Michigan
Current Conditions -  °F | °C
As of 10:25 AM on Saturday 22 Nov 2014 (Local Time) from KCFS Reporting Station
Overcast Overcast  
Wind Chill: -5°   Ceiling: 900
Heat Index:   Visibility: 5mi
Dew Point:   Wind: 16mph
Humidity: 93%   Direction: 200°SSW
Pressure: 29.98"   Gusts: 22mph
Location:  43.49°N, 83.4°W
Report Text: KCFS 221525Z AUTO 20014G19KT 5SM OVC009 01/00 A2998 RMK AO2
Loading
Personal Weather Stations






























Interactive Weather Map New forecast layout! Learn more

10-Day Weather Forecast

Advertisements
Track Severe Weather on mobile